Hlavní strana
METAR-TAF:

METAR-TAF

Letiště :

Terst / Ronchi dei Legionari, Itálie

zeměpisná šířka: 45-49N, zeměpisná délka: 013-29E, výška: 12 m

Aktuální stav počasí

Zpráva byla vytvořena před 10 minutami, v 06:20 UTC
vítr z různých směrů 2 kt
Teplota 24°C
Vlhkost vzduchu 74%
Tlak 1016 hPa
Viditelnost 10 km a více

METAR: LIPQ 190620Z AUTO VRB02KT 9999 NCD 24/19 Q1016

Čas: 08:30 (06:30 UTC)

Předpověď počasí

Zpráva byla vytvořena před 1 hodinou a 30 minutami, v 05:00 UTC
Předpověď platná od 19 v 06 UTC do 20 v 06 UTC
vítr z různých směrů 5 kt
Viditelnost 10 km a více
Žádná oblačnost pod 1500 m, nevyskytují se cumulonimby.

TAF: LIPQ 190500Z 1906/2006 VRB05KT CAVOK

Stav a předpovědi počasí z více než 4 000 letišť (zprávy METAR a TAF).

Červené a žluté tečky na mapě představují dostupné meteorologické stanice.

Když kurzor umístíte na tečku, zobrazí se název stanice.

Pak kliknutím zobrazíte stav a předpověď počasí.

Chcete-li změnit mapu, kliknutím na zelené tlačítko se znaménkem +mapu přiblížíte, kliknutím na zelené tlačítko se znaménkem – mapu oddálíte a kliknutím na zelené šipky přejdete na sousední mapy.


METAR-TAF: